Rivadavia, Argentina
Current Conditions -  °F | °C
As of 3:00 AM on Saturday 25 Oct 2014 (Local Time) from SAME Reporting Station
Clear Clear  
Wind Chill: 26°   Ceiling: Unl
Heat Index: 26°   Visibility: 6mi
Dew Point: 12°   Wind: 7mph
Humidity: 42%   Direction: 180°S
Pressure: 29.91"   Gusts: NA
Location:  31.55°S, 68.65°W
Report Text: SAME 250600Z 18006KT CAVOK 26/12 Q1013
Loading
Personal Weather Stations






























Interactive Weather Map
Tropical Storm Tracking
New forecast layout! Learn more

10-Day Weather Forecast

Advertisements
Track Severe Weather on mobile